Time;durP1;ratioP1;P1;durP2;ratioP2;P2;SDS_P1;SDS_P2;PMS_P1;PMS_P2;Temp;Humidity;BMP_temperature;BMP_pressure;BME280_temperature;BME280_humidity;BME280_pressure;Samples;Min_cycle;Max_cycle;Signal;HPM_P1;HPM_P2
2023/11/20 00:01:52;;;;;;;8.97;3.43;;;;;4.60;96522.00;;;;5027335;28;20817;-82
2023/11/20 00:04:43;;;;;;;13.87;5.07;;;;;4.30;96517.00;;;;5028224;28;20437;-82
2023/11/20 00:07:32;;;;;;;7.43;2.90;;;;;4.90;96509.00;;;;5027567;28;20698;-82
2023/11/20 00:10:21;;;;;;;8.30;3.27;;;;;5.10;96512.00;;;;5030274;28;20440;-82
2023/11/20 00:13:10;;;;;;;7.70;3.17;;;;;5.20;96498.00;;;;5029544;28;20229;-81
2023/11/20 00:15:59;;;;;;;11.47;4.37;;;;;5.10;96510.00;;;;5028705;28;20424;-82
2023/11/20 00:18:48;;;;;;;6.53;2.73;;;;;4.80;96501.00;;;;5027229;28;20437;-81
2023/11/20 00:21:41;;;;;;;11.67;4.43;;;;;4.90;96496.00;;;;5035525;28;20204;-82
2023/11/20 00:24:30;;;;;;;12.07;4.43;;;;;4.60;96496.00;;;;5030042;28;20432;-82
2023/11/20 00:27:19;;;;;;;9.27;3.43;;;;;4.80;96494.00;;;;5026501;28;20451;-82
2023/11/20 00:30:10;;;;;;;8.30;3.27;;;;;4.40;96505.00;;;;5028073;28;20805;-83
2023/11/20 00:32:59;;;;;;;8.83;3.33;;;;;4.70;96497.00;;;;5028522;28;20583;-82
2023/11/20 00:35:48;;;;;;;8.97;3.50;;;;;4.90;96500.00;;;;5028836;28;20209;-82
2023/11/20 00:38:38;;;;;;;12.73;4.73;;;;;4.90;96496.00;;;;5033198;28;20217;-82
2023/11/20 00:41:31;;;;;;;8.93;3.47;;;;;4.20;96497.00;;;;5027959;28;20615;-82
2023/11/20 00:44:20;;;;;;;5.37;2.23;;;;;4.60;96502.00;;;;5029210;28;20208;-82
2023/11/20 00:47:09;;;;;;;6.77;2.80;;;;;4.40;96510.00;;;;5023310;28;20825;-82
2023/11/20 00:49:58;;;;;;;11.30;4.20;;;;;4.50;96511.00;;;;5029007;28;20229;-81
2023/11/20 00:52:47;;;;;;;7.83;3.10;;;;;4.50;96496.00;;;;5028533;28;20446;-82
2023/11/20 00:55:38;;;;;;;8.80;3.37;;;;;4.20;96501.00;;;;5028799;28;20428;-82
2023/11/20 00:58:27;;;;;;;8.87;3.37;;;;;4.60;96509.00;;;;5029260;28;20435;-81
2023/11/20 01:01:16;;;;;;;8.27;3.37;;;;;4.20;96520.00;;;;5021875;28;20425;-82
2023/11/20 01:04:06;;;;;;;7.83;3.07;;;;;3.50;96507.00;;;;5029156;28;20964;-82
2023/11/20 01:06:55;;;;;;;7.77;3.17;;;;;4.20;96516.00;;;;5026857;28;20420;-82
2023/11/20 01:09:44;;;;;;;15.93;5.93;;;;;4.50;96520.00;;;;5028092;28;20458;-82
2023/11/20 01:12:35;;;;;;;11.07;4.17;;;;;4.40;96525.00;;;;5028556;28;20798;-82
2023/11/20 01:15:25;;;;;;;9.93;3.57;;;;;3.70;96519.00;;;;5029251;28;20474;-82
2023/11/20 01:18:14;;;;;;;8.50;3.30;;;;;4.50;96525.00;;;;5023631;28;20424;-83
2023/11/20 01:21:04;;;;;;;12.60;4.67;;;;;4.60;96524.00;;;;5029075;28;20952;-82
2023/11/20 01:23:53;;;;;;;7.37;2.90;;;;;4.10;96516.00;;;;5028627;28;20466;-81
2023/11/20 01:26:42;;;;;;;11.77;4.50;;;;;3.80;96531.00;;;;5028092;28;20440;-82
2023/11/20 01:29:32;;;;;;;8.87;3.30;;;;;3.40;96507.00;;;;5028803;28;20447;-82
2023/11/20 01:32:21;;;;;;;6.50;2.67;;;;;4.50;96516.00;;;;5026542;28;20435;-82
2023/11/20 01:35:10;;;;;;;5.03;2.13;;;;;4.70;96519.00;;;;5026806;28;20479;-83
2023/11/20 01:37:59;;;;;;;9.83;3.63;;;;;4.60;96527.00;;;;5030264;28;20501;-81
2023/11/20 01:40:54;;;;;;;7.13;2.73;;;;;4.10;96522.00;;;;5029071;28;20460;-82
2023/11/20 01:43:43;;;;;;;7.87;3.17;;;;;3.40;96514.00;;;;5030754;28;20432;-82
2023/11/20 01:46:33;;;;;;;8.67;3.40;;;;;3.90;96520.00;;;;5030851;28;20421;-82
2023/11/20 01:49:23;;;;;;;5.07;2.10;;;;;4.60;96514.00;;;;5027873;28;20462;-82
2023/11/20 01:52:12;;;;;;;7.13;2.93;;;;;4.80;96527.00;;;;5025206;28;20443;-82
2023/11/20 01:55:02;;;;;;;6.80;2.63;;;;;4.50;96514.00;;;;5032263;28;20470;-82
2023/11/20 01:57:51;;;;;;;5.37;2.17;;;;;4.70;96504.00;;;;5030343;28;20421;-81
2023/11/20 02:00:40;;;;;;;6.30;2.60;;;;;4.20;96495.00;;;;5031663;28;20836;-81
2023/11/20 02:03:32;;;;;;;5.67;2.37;;;;;4.50;96507.00;;;;5025517;28;20425;-81
2023/11/20 02:06:23;;;;;;;7.57;2.97;;;;;4.70;96504.00;;;;5028726;28;20421;-81
2023/11/20 02:09:12;;;;;;;6.17;2.37;;;;;4.30;96510.00;;;;5019715;28;20437;-81
2023/11/20 02:12:01;;;;;;;5.37;2.20;;;;;3.30;96489.00;;;;5029154;28;20467;-82
2023/11/20 02:14:50;;;;;;;5.33;2.10;;;;;3.80;96497.00;;;;5028938;28;20448;-82
2023/11/20 02:17:39;;;;;;;12.70;4.60;;;;;4.20;96487.00;;;;5021103;28;20448;-81
2023/11/20 02:20:30;;;;;;;7.27;2.83;;;;;4.40;96492.00;;;;5023284;28;21105;-82
2023/11/20 02:23:19;;;;;;;4.80;2.00;;;;;4.00;96493.00;;;;5029459;28;20436;-82
2023/11/20 02:26:24;;;;;;;8.83;3.43;;;;;4.10;96490.00;;;;5025365;28;20420;-82
2023/11/20 02:29:22;;;;;;;7.47;2.83;;;;;4.50;96502.00;;;;5023661;28;20976;-82
2023/11/20 02:32:13;;;;;;;6.93;2.70;;;;;4.60;96504.00;;;;5029113;28;20904;-81
2023/11/20 02:35:04;;;;;;;7.60;2.93;;;;;4.10;96491.00;;;;5032055;28;20838;-82
2023/11/20 02:37:54;;;;;;;7.50;3.00;;;;;4.40;96468.00;;;;5029600;28;20444;-81
2023/11/20 02:40:43;;;;;;;9.27;3.57;;;;;4.60;96484.00;;;;5029469;28;21063;-82
2023/11/20 02:43:38;;;;;;;7.03;2.73;;;;;3.60;96490.00;;;;5024438;28;20799;-81
2023/11/20 02:46:27;;;;;;;4.67;1.97;;;;;3.60;96474.00;;;;5028376;28;20439;-82
2023/11/20 02:49:18;;;;;;;4.97;2.07;;;;;4.40;96477.00;;;;5023323;28;20452;-81
2023/11/20 02:52:08;;;;;;;7.07;2.73;;;;;4.80;96486.00;;;;5031219;28;20782;-81
2023/11/20 02:54:59;;;;;;;8.23;3.23;;;;;3.60;96478.00;;;;5027566;28;20805;-82
2023/11/20 02:57:48;;;;;;;9.07;3.53;;;;;3.70;96469.00;;;;5021763;28;20858;-83
2023/11/20 03:00:38;;;;;;;10.37;4.00;;;;;4.30;96479.00;;;;5021859;28;20460;-81
2023/11/20 03:03:27;;;;;;;5.67;2.23;;;;;4.80;96498.00;;;;5023279;28;21003;-81
2023/11/20 03:06:18;;;;;;;3.73;1.70;;;;;5.00;96493.00;;;;5021421;28;20460;-82
2023/11/20 03:09:07;;;;;;;7.03;2.73;;;;;4.90;96490.00;;;;5030273;28;20455;-82
2023/11/20 03:11:56;;;;;;;9.27;3.43;;;;;5.00;96489.00;;;;5026114;28;20198;-82
2023/11/20 03:14:45;;;;;;;11.70;4.47;;;;;4.70;96484.00;;;;5023756;28;20464;-82
2023/11/20 03:17:34;;;;;;;11.87;4.47;;;;;4.70;96478.00;;;;5022573;28;20216;-82
2023/11/20 03:20:23;;;;;;;7.13;2.83;;;;;4.80;96477.00;;;;5025587;28;20484;-82
2023/11/20 03:23:14;;;;;;;7.00;2.63;;;;;4.90;96473.00;;;;5023940;28;20432;-81
2023/11/20 03:26:03;;;;;;;11.43;4.17;;;;;4.30;96493.00;;;;5028197;28;20299;-82
2023/11/20 03:28:52;;;;;;;6.93;2.67;;;;;4.20;96488.00;;;;5028178;28;20193;-82
2023/11/20 03:31:41;;;;;;;11.40;4.37;;;;;4.80;96495.00;;;;5029627;28;20425;-82
2023/11/20 03:34:30;;;;;;;6.90;2.80;;;;;4.90;96487.00;;;;5023653;28;20440;-82
2023/11/20 03:37:19;;;;;;;7.37;2.87;;;;;4.60;96468.00;;;;5011162;28;20429;-82
2023/11/20 03:40:12;;;;;;;6.27;2.50;;;;;4.80;96465.00;;;;5024964;28;20445;-82
2023/11/20 03:43:01;;;;;;;6.07;2.30;;;;;4.50;96471.00;;;;5027482;28;20511;-82
2023/11/20 03:45:50;;;;;;;8.60;3.30;;;;;4.00;96472.00;;;;5028029;28;21418;-81
2023/11/20 03:48:39;;;;;;;5.77;2.47;;;;;4.30;96488.00;;;;5027237;28;20436;-82
2023/11/20 03:51:28;;;;;;;5.50;2.17;;;;;4.20;96488.00;;;;5028563;28;20984;-82
2023/11/20 03:54:17;;;;;;;6.67;2.57;;;;;4.70;96497.00;;;;5026640;28;21121;-82
2023/11/20 03:57:07;;;;;;;6.50;2.63;;;;;4.10;96488.00;;;;5024542;28;20432;-82
2023/11/20 03:59:57;;;;;;;14.33;5.23;;;;;4.40;96500.00;;;;5028532;28;20451;-82
2023/11/20 04:02:46;;;;;;;12.10;4.53;;;;;4.20;96501.00;;;;5027464;28;20275;-82
2023/11/20 04:05:37;;;;;;;12.67;4.63;;;;;4.80;96478.00;;;;5027319;28;20432;-81
2023/11/20 04:08:26;;;;;;;6.63;2.67;;;;;5.00;96477.00;;;;5024424;28;20424;-81
2023/11/20 04:11:15;;;;;;;7.77;2.90;;;;;4.50;96473.00;;;;5021521;28;20428;-82
2023/11/20 04:14:06;;;;;;;6.93;2.77;;;;;4.30;96490.00;;;;5027576;28;20201;-82
2023/11/20 04:16:55;;;;;;;9.40;3.53;;;;;4.60;96483.00;;;;5030419;28;20471;-82
2023/11/20 04:19:44;;;;;;;13.43;4.93;;;;;5.10;96476.00;;;;5025767;28;20225;-81
2023/11/20 04:22:33;;;;;;;8.70;3.33;;;;;5.10;96484.00;;;;5026550;28;20432;-81
2023/11/20 04:25:22;;;;;;;9.17;3.47;;;;;4.20;96474.00;;;;5027633;28;20201;-82
2023/11/20 04:28:11;;;;;;;12.13;4.37;;;;;5.00;96490.00;;;;5023004;28;20216;-81
2023/11/20 04:31:02;;;;;;;10.00;3.73;;;;;4.50;96475.00;;;;5020971;28;20615;-83
2023/11/20 04:33:51;;;;;;;9.23;3.40;;;;;4.90;96473.00;;;;5026990;28;20428;-81
2023/11/20 04:36:40;;;;;;;12.40;4.60;;;;;5.40;96466.00;;;;5029069;28;20823;-81
2023/11/20 04:39:29;;;;;;;7.00;2.80;;;;;5.40;96464.00;;;;5023295;28;20241;-81
2023/11/20 04:42:18;;;;;;;7.63;3.17;;;;;4.70;96470.00;;;;5023421;28;20205;-82
2023/11/20 04:45:10;;;;;;;7.50;2.87;;;;;4.00;96485.00;;;;5027457;28;20435;-82
2023/11/20 04:48:00;;;;;;;10.43;4.00;;;;;4.30;96466.00;;;;5031947;28;20424;-82
2023/11/20 04:50:49;;;;;;;8.83;3.47;;;;;5.00;96478.00;;;;5030517;28;20229;-82
2023/11/20 04:53:38;;;;;;;11.17;4.13;;;;;5.30;96500.00;;;;5030143;28;20976;-82
2023/11/20 04:56:28;;;;;;;8.27;3.23;;;;;5.40;96487.00;;;;5026491;28;20468;-82
2023/11/20 04:59:17;;;;;;;6.63;2.73;;;;;5.70;96491.00;;;;5027691;28;20225;-83
2023/11/20 05:02:06;;;;;;;8.47;3.23;;;;;5.80;96501.00;;;;5028070;28;20212;-83
2023/11/20 05:04:57;;;;;;;10.27;3.80;;;;;5.70;96489.00;;;;5028092;28;20201;-83
2023/11/20 05:07:46;;;;;;;20.97;7.37;;;;;5.70;96488.00;;;;5031049;28;20202;-83
2023/11/20 05:10:35;;;;;;;12.00;4.37;;;;;6.00;96480.00;;;;5030938;28;20298;-82
2023/11/20 05:13:25;;;;;;;11.00;4.07;;;;;5.60;96488.00;;;;5031002;28;20212;-83
2023/11/20 05:16:14;;;;;;;10.33;3.90;;;;;5.80;96493.00;;;;5029927;28;20229;-83
2023/11/20 05:19:03;;;;;;;6.70;2.67;;;;;5.90;96479.00;;;;5033141;28;20213;-83
2023/11/20 05:21:54;;;;;;;6.77;2.57;;;;;5.70;96472.00;;;;5031509;28;20201;-82
2023/11/20 05:24:43;;;;;;;12.20;4.50;;;;;5.50;96471.00;;;;5030932;28;20609;-81
2023/11/20 05:27:32;;;;;;;8.07;3.17;;;;;5.70;96450.00;;;;5028376;28;20190;-82
2023/11/20 05:30:22;;;;;;;9.07;3.50;;;;;5.90;96457.00;;;;5033501;28;20236;-82
2023/11/20 05:33:11;;;;;;;6.17;2.60;;;;;5.30;96458.00;;;;5022951;28;20232;-82
2023/11/20 05:36:01;;;;;;;13.23;4.80;;;;;5.80;96450.00;;;;5028106;28;20229;-82
2023/11/20 05:38:51;;;;;;;18.10;6.47;;;;;5.90;96446.00;;;;5025986;28;20672;-82
2023/11/20 05:41:40;;;;;;;13.33;4.87;;;;;5.70;96452.00;;;;5026760;28;20209;-82
2023/11/20 05:44:29;;;;;;;8.53;3.33;;;;;5.50;96458.00;;;;5025809;28;20470;-82
2023/11/20 05:47:18;;;;;;;8.47;3.33;;;;;4.90;96446.00;;;;5029702;28;20217;-81
2023/11/20 05:50:08;;;;;;;7.80;3.03;;;;;5.40;96445.00;;;;5035903;28;20476;-82
2023/11/20 05:52:57;;;;;;;10.13;3.87;;;;;5.80;96438.00;;;;5031595;28;20205;-82
2023/11/20 05:55:48;;;;;;;13.70;5.03;;;;;5.90;96446.00;;;;5030455;28;20210;-82
2023/11/20 05:58:37;;;;;;;13.57;5.03;;;;;6.00;96443.00;;;;5027750;28;20201;-82
2023/11/20 06:01:30;;;;;;;7.23;2.97;;;;;5.90;96452.00;;;;5025624;28;20716;-82
2023/11/20 06:04:19;;;;;;;7.63;2.87;;;;;6.00;96449.00;;;;5027520;28;20205;-82
2023/11/20 06:07:08;;;;;;;14.37;5.30;;;;;6.00;96448.00;;;;5028752;28;20686;-82
2023/11/20 06:09:57;;;;;;;11.83;4.47;;;;;5.30;96446.00;;;;5030475;28;20233;-82
2023/11/20 06:12:47;;;;;;;13.03;4.93;;;;;5.20;96442.00;;;;5031590;28;20570;-82
2023/11/20 06:15:37;;;;;;;13.87;5.10;;;;;5.40;96438.00;;;;5029552;28;20201;-82
2023/11/20 06:18:26;;;;;;;7.87;3.00;;;;;5.80;96440.00;;;;5028805;28;20585;-82
2023/11/20 06:21:15;;;;;;;7.20;2.93;;;;;5.90;96445.00;;;;5031762;28;20224;-82
2023/11/20 06:24:04;;;;;;;19.03;6.77;;;;;5.90;96465.00;;;;5025134;28;20631;-82
2023/11/20 06:26:54;;;;;;;7.77;3.00;;;;;5.90;96459.00;;;;5028441;28;20221;-82
2023/11/20 06:29:46;;;;;;;14.43;5.23;;;;;5.80;96463.00;;;;5028319;28;20222;-82
2023/11/20 06:32:36;;;;;;;9.53;3.67;;;;;5.60;96465.00;;;;5023024;28;20205;-82
2023/11/20 06:35:25;;;;;;;8.90;3.47;;;;;5.70;96459.00;;;;5025380;28;20696;-82
2023/11/20 06:38:14;;;;;;;12.53;4.70;;;;;5.40;96454.00;;;;5029206;28;20229;-82
2023/11/20 06:41:03;;;;;;;10.97;4.03;;;;;5.80;96469.00;;;;5027713;28;20224;-82
2023/11/20 06:43:52;;;;;;;6.53;2.63;;;;;6.00;96465.00;;;;5028739;28;20205;-82
2023/11/20 06:46:43;;;;;;;13.27;4.97;;;;;5.50;96459.00;;;;5028052;28;20204;-83
2023/11/20 06:49:32;;;;;;;11.03;4.03;;;;;5.40;96448.00;;;;5025338;28;20741;-82
2023/11/20 06:52:21;;;;;;;10.77;4.03;;;;;6.00;96462.00;;;;5030521;28;20205;-82
2023/11/20 06:55:10;;;;;;;8.83;3.33;;;;;6.70;96462.00;;;;5028054;28;20201;-82
2023/11/20 06:57:59;;;;;;;10.60;4.07;;;;;5.80;96467.00;;;;5029641;28;20228;-82
2023/11/20 07:00:48;;;;;;;14.67;5.40;;;;;6.00;96466.00;;;;5025640;28;20721;-82
2023/11/20 07:03:42;;;;;;;13.57;4.90;;;;;5.30;96464.00;;;;5027786;28;20678;-82
2023/11/20 07:06:31;;;;;;;12.97;4.77;;;;;5.10;96456.00;;;;5032187;28;20538;-82
2023/11/20 07:09:28;;;;;;;10.53;4.07;;;;;6.30;96469.00;;;;5030647;28;20225;-82
2023/11/20 07:12:17;;;;;;;7.17;3.00;;;;;7.00;96477.00;;;;5034056;28;20214;-82
2023/11/20 07:15:08;;;;;;;8.43;3.37;;;;;7.30;96476.00;;;;5036059;23;20540;-67
2023/11/20 07:17:57;;;;;;;8.77;3.40;;;;;7.20;96484.00;;;;5026266;28;20230;-65
2023/11/20 07:20:47;;;;;;;17.60;6.40;;;;;7.10;96471.00;;;;5005469;28;20198;-68
2023/11/20 07:23:36;;;;;;;9.13;3.70;;;;;7.30;96475.00;;;;5006650;28;20202;-67
2023/11/20 07:26:26;;;;;;;9.53;3.83;;;;;7.50;96475.00;;;;5011530;28;20211;-66
2023/11/20 07:29:15;;;;;;;6.23;2.83;;;;;6.90;96471.00;;;;5009679;28;20229;-67
2023/11/20 07:32:05;;;;;;;6.00;2.70;;;;;6.50;96459.00;;;;5014572;28;20888;-66
2023/11/20 07:34:54;;;;;;;10.57;4.17;;;;;7.00;96463.00;;;;5007129;28;20206;-66
2023/11/20 07:37:44;;;;;;;18.50;7.03;;;;;7.40;96468.00;;;;5006855;28;20233;-67
2023/11/20 07:40:33;;;;;;;7.17;3.20;;;;;7.50;96472.00;;;;5005281;28;20205;-67
2023/11/20 07:43:23;;;;;;;8.40;3.57;;;;;7.20;96477.00;;;;5012541;28;20299;-67
2023/11/20 07:46:12;;;;;;;10.27;4.13;;;;;7.30;96462.00;;;;5011068;28;20202;-65
2023/11/20 07:49:01;;;;;;;12.50;4.97;;;;;8.00;96474.00;;;;5008186;28;20260;-67
2023/11/20 07:51:50;;;;;;;14.80;5.70;;;;;8.00;96472.00;;;;5002175;28;20252;-67
2023/11/20 07:54:40;;;;;;;15.03;5.90;;;;;7.60;96471.00;;;;5008516;28;20198;-67
2023/11/20 07:57:29;;;;;;;4.73;2.27;;;;;8.20;96485.00;;;;5005134;28;20376;-66
2023/11/20 08:00:19;;;;;;;6.40;2.87;;;;;8.10;96477.00;;;;5010836;28;20213;-65
2023/11/20 08:03:09;;;;;;;8.27;3.53;;;;;7.90;96494.00;;;;5001587;28;20225;-65
2023/11/20 08:05:58;;;;;;;13.80;5.53;;;;;8.20;96485.00;;;;5013577;28;20206;-64
2023/11/20 08:08:51;;;;;;;13.87;5.37;;;;;8.60;96480.00;;;;5007104;28;20226;-64
2023/11/20 08:11:42;;;;;;;14.17;5.50;;;;;8.60;96480.00;;;;5007204;28;20213;-64
2023/11/20 08:14:31;;;;;;;8.47;3.87;;;;;8.50;96476.00;;;;5009166;28;20213;-65
2023/11/20 08:17:20;;;;;;;8.33;3.93;;;;;8.70;96467.00;;;;5003319;28;20222;-64
2023/11/20 08:20:10;;;;;;;7.53;3.77;;;;;9.40;96478.00;;;;5007010;28;20754;-63
2023/11/20 08:22:59;;;;;;;9.83;4.00;;;;;9.80;96483.00;;;;5008587;28;20198;-65
2023/11/20 08:25:48;;;;;;;9.63;4.17;;;;;9.80;96469.00;;;;5008019;28;20240;-64
2023/11/20 08:28:39;;;;;;;9.40;4.20;;;;;9.90;96471.00;;;;5007138;28;20222;-65
2023/11/20 08:31:29;;;;;;;7.83;4.37;;;;;10.30;96479.00;;;;5004699;28;20206;-64
2023/11/20 08:34:18;;;;;;;7.27;4.17;;;;;10.50;96459.00;;;;5013191;28;20204;-65
2023/11/20 08:37:08;;;;;;;8.53;4.60;;;;;10.80;96489.00;;;;5007816;28;20292;-65
2023/11/20 08:39:59;;;;;;;17.23;7.33;;;;;10.20;96469.00;;;;5013802;28;20675;-65
2023/11/20 08:42:48;;;;;;;15.50;6.87;;;;;9.80;96457.00;;;;5011438;28;20225;-65
2023/11/20 08:45:38;;;;;;;10.80;5.20;;;;;10.70;96463.00;;;;5010781;28;20220;-65
2023/11/20 08:48:28;;;;;;;8.37;4.17;;;;;10.80;96455.00;;;;5011729;28;20233;-65
2023/11/20 08:51:17;;;;;;;7.40;4.20;;;;;11.00;96453.00;;;;5010092;28;20214;-64
2023/11/20 08:54:06;;;;;;;10.77;5.27;;;;;11.10;96447.00;;;;5014666;28;20198;-65
2023/11/20 08:56:55;;;;;;;6.90;3.63;;;;;10.70;96442.00;;;;5011384;28;20213;-65
2023/11/20 08:59:45;;;;;;;13.80;6.20;;;;;11.60;96449.00;;;;5018841;28;20205;-64
2023/11/20 09:02:35;;;;;;;9.00;4.67;;;;;11.10;96441.00;;;;5011620;28;20213;-66
2023/11/20 09:05:24;;;;;;;9.50;5.40;;;;;11.40;96436.00;;;;5006813;28;20213;-65
2023/11/20 09:08:14;;;;;;;13.80;7.03;;;;;11.30;96435.00;;;;5010312;28;20229;-65
2023/11/20 09:11:03;;;;;;;11.97;5.77;;;;;11.30;96443.00;;;;5006670;28;20197;-65
2023/11/20 09:13:52;;;;;;;15.70;7.63;;;;;12.50;96426.00;;;;5011510;28;20202;-66
2023/11/20 09:16:41;;;;;;;15.20;7.83;;;;;13.10;96425.00;;;;5010673;28;20229;-65
2023/11/20 09:19:32;;;;;;;9.13;6.83;;;;;13.10;96432.00;;;;5006785;28;20241;-66
2023/11/20 09:22:21;;;;;;;8.90;6.23;;;;;13.80;96417.00;;;;5013569;28;20209;-66
2023/11/20 09:25:11;;;;;;;11.70;10.10;;;;;14.00;96425.00;;;;5012019;28;20937;-66
2023/11/20 09:28:00;;;;;;;18.40;14.30;;;;;14.20;96426.00;;;;5014577;28;20281;-65
2023/11/20 09:30:49;;;;;;;17.87;14.70;;;;;14.60;96438.00;;;;5010305;28;20213;-65
2023/11/20 09:33:38;;;;;;;17.03;13.87;;;;;15.00;96429.00;;;;5011000;28;20583;-66
2023/11/20 09:36:29;;;;;;;16.40;14.87;;;;;15.40;96416.00;;;;5011114;28;20202;-65
2023/11/20 09:39:18;;;;;;;17.13;15.60;;;;;15.50;96419.00;;;;5011278;28;20229;-65
2023/11/20 09:42:08;;;;;;;18.80;17.17;;;;;15.10;96405.00;;;;5003831;28;20209;-65
2023/11/20 09:44:57;;;;;;;18.57;16.87;;;;;15.80;96413.00;;;;5017595;28;20206;-65
2023/11/20 09:47:48;;;;;;;26.83;24.37;;;;;15.60;96416.00;;;;5011294;28;20218;-65
2023/11/20 09:50:38;;;;;;;21.10;19.57;;;;;15.50;96420.00;;;;5010440;28;20206;-64
2023/11/20 09:53:34;;;;;;;16.33;15.17;;;;;16.00;96404.00;;;;5004782;28;20410;-65
2023/11/20 09:56:23;;;;;;;16.73;15.33;;;;;14.70;96403.00;;;;5007271;28;20582;-66
2023/11/20 09:59:12;;;;;;;18.37;16.60;;;;;15.60;96404.00;;;;5008492;28;20240;-64
2023/11/20 10:02:03;;;;;;;16.50;15.23;;;;;16.80;96412.00;;;;5007874;28;21715;-65
2023/11/20 10:04:55;;;;;;;24.27;22.83;;;;;16.80;96395.00;;;;5010007;28;20194;-65
2023/11/20 10:07:46;;;;;;;28.17;25.73;;;;;16.10;96392.00;;;;5008850;28;20703;-66
2023/11/20 10:10:36;;;;;;;25.27;24.10;;;;;17.70;96385.00;;;;5010084;28;20593;-65
2023/11/20 10:13:27;;;;;;;36.53;34.47;;;;;17.70;96369.00;;;;5009821;28;20993;-66
2023/11/20 10:16:19;;;;;;;38.07;36.03;;;;;17.80;96369.00;;;;5003166;28;20579;-65
2023/11/20 10:19:12;;;;;;;45.23;42.90;;;;;19.40;96354.00;;;;5005825;28;20222;-65
2023/11/20 10:22:05;;;;;;;62.23;58.97;;;;;19.10;96356.00;;;;5003685;28;20212;-65
2023/11/20 10:24:55;;;;;;;74.80;70.67;;;;;20.80;96351.00;;;;5011134;28;20206;-64
2023/11/20 10:27:46;;;;;;;93.10;87.77;;;;;19.70;96336.00;;;;5009954;28;20698;-64
2023/11/20 10:30:35;;;;;;;169.57;160.77;;;;;21.40;96350.00;;;;5015105;28;20220;-65
2023/11/20 10:33:24;;;;;;;202.60;191.80;;;;;22.70;96348.00;;;;5009833;28;20631;-64
2023/11/20 10:36:15;;;;;;;237.10;224.17;;;;;23.60;96340.00;;;;4996543;28;20232;-65
2023/11/20 10:39:05;;;;;;;269.93;255.30;;;;;24.50;96330.00;;;;5017163;28;20226;-65
2023/11/20 10:41:54;;;;;;;338.63;318.67;;;;;24.80;96328.00;;;;5009919;28;20213;-66
2023/11/20 10:44:45;;;;;;;344.80;324.63;;;;;22.20;96326.00;;;;5008983;28;20213;-65
2023/11/20 10:47:34;;;;;;;368.33;347.40;;;;;22.90;96316.00;;;;5017349;28;20209;-66
2023/11/20 10:50:25;;;;;;;368.50;347.60;;;;;24.50;96306.00;;;;5004671;28;20213;-66
2023/11/20 10:53:18;;;;;;;395.30;371.97;;;;;22.90;96315.00;;;;5001098;28;20211;-65
2023/11/20 10:56:08;;;;;;;405.83;381.03;;;;;24.20;96313.00;;;;5009813;28;20210;-64
2023/11/20 10:58:57;;;;;;;406.83;383.00;;;;;23.00;96322.00;;;;5011593;28;20313;-65
2023/11/20 11:01:48;;;;;;;418.87;394.80;;;;;22.30;96301.00;;;;5008678;28;20198;-66
2023/11/20 11:04:39;;;;;;;408.93;384.60;;;;;23.90;96307.00;;;;5009199;28;20230;-65
2023/11/20 11:07:29;;;;;;;411.00;387.30;;;;;24.40;96300.00;;;;5008481;28;20206;-65
2023/11/20 11:10:18;;;;;;;437.00;409.80;;;;;24.40;96304.00;;;;5003830;28;20214;-66
2023/11/20 11:13:08;;;;;;;428.13;402.80;;;;;21.80;96300.00;;;;4999657;28;20317;-67
2023/11/20 11:15:58;;;;;;;435.40;408.70;;;;;22.50;96313.00;;;;5000926;28;20615;-66
2023/11/20 11:18:55;;;;;;;430.70;402.73;;;;;23.30;96299.00;;;;5003502;28;20284;-65
2023/11/20 11:21:51;;;;;;;448.83;413.63;;;;;22.80;96309.00;;;;5008015;28;20210;-65
2023/11/20 11:24:42;;;;;;;464.50;420.80;;;;;23.20;96295.00;;;;5010893;28;20200;-65
2023/11/20 11:27:36;;;;;;;455.30;422.17;;;;;24.40;96287.00;;;;5007184;28;20221;-65
2023/11/20 11:30:27;;;;;;;484.67;449.10;;;;;24.50;96276.00;;;;5011243;28;20615;-65
2023/11/20 11:34:00;;;;;;;488.70;452.07;;;;;23.40;96286.00;;;;5007323;28;20215;-65
2023/11/20 11:36:56;;;;;;;495.70;459.90;;;;;24.20;96279.00;;;;4955990;28;20589;-65
2023/11/20 11:39:59;;;;;;;502.93;465.03;;;;;25.40;96269.00;;;;5017553;28;20227;-65
2023/11/20 11:42:53;;;;;;;514.17;471.90;;;;;25.00;96283.00;;;;4992893;28;21180;-66
2023/11/20 11:45:45;;;;;;;520.03;472.53;;;;;25.70;96277.00;;;;4992581;28;20230;-66
2023/11/20 11:48:37;;;;;;;541.43;492.40;;;;;25.50;96254.00;;;;5014901;28;20233;-66
2023/11/20 11:51:29;;;;;;;557.80;507.27;;;;;26.50;96253.00;;;;5007847;28;20212;-66
2023/11/20 11:54:19;;;;;;;566.77;516.17;;;;;26.20;96252.00;;;;5002455;28;20201;-66
2023/11/20 11:57:11;;;;;;;582.37;531.23;;;;;25.70;96257.00;;;;5005948;28;20202;-65
2023/11/20 12:00:00;;;;;;;592.50;540.30;;;;;26.20;96252.00;;;;5000959;28;20232;-66
2023/11/20 12:02:57;;;;;;;606.23;553.70;;;;;26.10;96248.00;;;;4996828;28;20220;-67
2023/11/20 12:06:14;;;;;;;598.00;545.87;;;;;23.90;96252.00;;;;4995899;28;20199;-65
2023/11/20 12:09:06;;;;;;;580.07;529.20;;;;;23.90;96243.00;;;;5002177;28;20701;-66
2023/11/20 12:11:57;;;;;;;577.73;526.63;;;;;25.00;96223.00;;;;5008920;28;20695;-66
2023/11/20 12:14:47;;;;;;;572.40;520.83;;;;;25.10;96236.00;;;;5005752;28;20244;-65
2023/11/20 12:17:38;;;;;;;790.13;733.30;;;;;25.10;96219.00;;;;5006161;28;20408;-65
2023/11/20 12:20:27;;;;;;;622.33;570.47;;;;;25.80;96211.00;;;;5006094;28;20705;-65
2023/11/20 12:23:21;;;;;;;831.10;773.28;;;;;24.80;96231.00;;;;4998142;28;20394;-65
2023/11/20 12:26:12;;;;;;;649.23;596.63;;;;;25.00;96221.00;;;;5008488;28;20263;-65
2023/11/20 12:29:01;;;;;;;622.77;571.57;;;;;25.60;96222.00;;;;5011934;28;20221;-66
2023/11/20 12:31:53;;;;;;;616.43;564.87;;;;;27.20;96215.00;;;;5006168;28;20205;-65
2023/11/20 12:34:42;;;;;;;625.83;573.60;;;;;27.90;96208.00;;;;5004419;28;20194;-65
2023/11/20 12:37:32;;;;;;;635.53;583.60;;;;;28.40;96219.00;;;;5011645;28;20231;-66
2023/11/20 12:40:22;;;;;;;644.92;592.65;;;;;25.70;96200.00;;;;5004453;28;20610;-66
2023/11/20 12:43:13;;;;;;;649.60;597.30;;;;;27.50;96212.00;;;;5007356;28;20740;-66
2023/11/20 12:46:04;;;;;;;658.78;605.88;;;;;26.80;96199.00;;;;5007896;28;20204;-66
2023/11/20 12:48:53;;;;;;;652.45;599.92;;;;;25.40;96190.00;;;;5002741;28;20223;-66
2023/11/20 12:51:43;;;;;;;646.47;594.28;;;;;26.90;96231.00;;;;5007909;28;20740;-66
2023/11/20 12:54:32;;;;;;;644.35;592.50;;;;;25.30;96232.00;;;;5008406;28;20216;-66
2023/11/20 12:57:22;;;;;;;635.50;583.97;;;;;24.70;96237.00;;;;5008720;28;20217;-65
2023/11/20 13:00:14;;;;;;;616.37;565.43;;;;;24.30;96219.00;;;;5006848;28;20228;-65
2023/11/20 13:03:04;;;;;;;591.70;542.30;;;;;24.00;96232.00;;;;5007432;28;20284;-66
2023/11/20 13:05:55;;;;;;;578.43;530.17;;;;;23.90;96235.00;;;;5008396;28;20209;-65
2023/11/20 13:08:44;;;;;;;554.13;506.53;;;;;23.70;96239.00;;;;5006769;28;20227;-66
2023/11/20 13:11:36;;;;;;;534.33;490.13;;;;;23.20;96242.00;;;;4999497;28;20207;-66
2023/11/20 13:14:25;;;;;;;512.87;469.27;;;;;23.30;96236.00;;;;5002921;28;20205;-65
2023/11/20 13:17:18;;;;;;;498.13;455.00;;;;;23.30;96235.00;;;;4998918;28;20285;-66
2023/11/20 13:20:40;;;;;;;487.77;448.30;;;;;22.50;96227.00;;;;5004194;28;20224;-65
2023/11/20 13:23:33;;;;;;;470.50;432.43;;;;;21.00;96234.00;;;;5007823;28;20308;-65
2023/11/20 13:26:22;;;;;;;459.23;421.10;;;;;20.00;96237.00;;;;5007978;28;20212;-66
2023/11/20 13:29:11;;;;;;;433.10;399.07;;;;;19.80;96232.00;;;;5006940;28;20230;-65
2023/11/20 13:32:00;;;;;;;413.87;380.10;;;;;21.40;96243.00;;;;5010833;28;20206;-66
2023/11/20 13:34:50;;;;;;;405.60;371.57;;;;;19.60;96249.00;;;;5011082;28;20210;-65
2023/11/20 13:37:42;;;;;;;388.43;357.27;;;;;18.60;96242.00;;;;5014240;28;20206;-65
2023/11/20 13:40:31;;;;;;;363.03;334.07;;;;;18.80;96240.00;;;;5042452;23;20244;-69
2023/11/20 13:43:21;;;;;;;344.10;315.50;;;;;19.80;96243.00;;;;5040609;28;20215;-71
2023/11/20 13:46:10;;;;;;;338.07;309.20;;;;;19.60;96232.00;;;;5040031;28;20577;-70
2023/11/20 13:48:59;;;;;;;335.30;307.00;;;;;19.30;96223.00;;;;5037778;28;20233;-70
2023/11/20 13:51:48;;;;;;;338.90;310.30;;;;;19.50;96211.00;;;;5036768;28;20205;-70
2023/11/20 13:54:39;;;;;;;333.90;305.57;;;;;19.10;96218.00;;;;5037407;28;20209;-70
2023/11/20 13:57:28;;;;;;;345.40;315.83;;;;;20.50;96208.00;;;;5031451;28;20216;-71
2023/11/20 14:00:19;;;;;;;365.30;333.07;;;;;22.60;96212.00;;;;5039422;28;21059;-70
2023/11/20 14:03:08;;;;;;;396.47;361.57;;;;;23.40;96211.00;;;;5024787;28;20259;-70
2023/11/20 14:05:59;;;;;;;435.50;397.37;;;;;21.30;96213.00;;;;5035470;28;20267;-70